Time;durP1;ratioP1;P1;durP2;ratioP2;P2;SDS_P1;SDS_P2;PMS_P1;PMS_P2;Temp;Humidity;BMP_temperature;BMP_pressure;BME280_temperature;BME280_humidity;BME280_pressure;Samples;Min_cycle;Max_cycle;Signal;HPM_P1;HPM_P2
2023/12/21 00:01:21;;;;;;;6.68;1.70;;;12.40;77.00;;;;;;5073359;28;20412;-76
2023/12/21 00:03:47;;;;;;;6.85;1.85;;;12.40;77.00;;;;;;5076657;28;20048;-77
2023/12/21 00:06:13;;;;;;;3.88;1.33;;;12.40;77.00;;;;;;5070799;28;20130;-75
2023/12/21 00:08:39;;;;;;;8.45;3.63;;;12.40;77.10;;;;;;5070242;28;20044;-74
2023/12/21 00:11:05;;;;;;;7.10;1.77;;;12.40;77.10;;;;;;5073562;28;20024;-74
2023/12/21 00:13:31;;;;;;;8.23;2.17;;;12.40;77.10;;;;;;5058534;28;20047;-76
2023/12/21 00:15:57;;;;;;;5.47;1.30;;;12.40;77.10;;;;;;5072807;28;20408;-73
2023/12/21 00:18:24;;;;;;;6.13;1.65;;;12.40;77.10;;;;;;5051797;28;20028;-73
2023/12/21 00:20:51;;;;;;;7.55;1.50;;;12.40;77.20;;;;;;5071708;28;20100;-74
2023/12/21 00:23:16;;;;;;;6.45;2.33;;;12.40;77.10;;;;;;5069147;28;20032;-74
2023/12/21 00:25:42;;;;;;;6.55;2.13;;;12.40;77.10;;;;;;5073381;28;20028;-74
2023/12/21 00:28:08;;;;;;;3.05;1.33;;;12.40;77.20;;;;;;5074593;28;20079;-76
2023/12/21 00:30:34;;;;;;;4.22;1.70;;;12.30;77.00;;;;;;5073198;28;20024;-76
2023/12/21 00:33:00;;;;;;;4.97;1.00;;;12.40;77.20;;;;;;5078837;28;20065;-76
2023/12/21 00:35:26;;;;;;;5.05;1.80;;;12.40;77.30;;;;;;5075140;28;20434;-74
2023/12/21 00:37:52;;;;;;;5.10;1.70;;;12.40;77.20;;;;;;5073001;28;20035;-76
2023/12/21 00:40:18;;;;;;;6.38;2.00;;;12.40;77.20;;;;;;5073658;28;20521;-77
2023/12/21 00:42:45;;;;;;;5.18;1.48;;;12.30;77.10;;;;;;5076487;28;20024;-75
2023/12/21 00:45:11;;;;;;;5.55;2.38;;;12.40;77.30;;;;;;5069890;28;20024;-77
2023/12/21 00:47:37;;;;;;;7.60;1.77;;;12.30;77.10;;;;;;5068904;28;20516;-74
2023/12/21 00:50:03;;;;;;;4.60;1.77;;;12.40;77.20;;;;;;5069718;28;20070;-73
2023/12/21 00:52:29;;;;;;;6.03;1.40;;;12.30;77.10;;;;;;5084874;28;20032;-76
2023/12/21 00:54:55;;;;;;;9.43;1.70;;;12.30;77.00;;;;;;5086566;28;20262;-74
2023/12/21 00:57:23;;;;;;;4.60;1.48;;;12.30;77.10;;;;;;5082696;28;20036;-74
2023/12/21 00:59:49;;;;;;;6.28;2.33;;;12.30;77.10;;;;;;5065595;28;20029;-75
2023/12/21 01:02:15;;;;;;;3.38;1.67;;;12.30;77.10;;;;;;5049592;28;20035;-75
2023/12/21 01:04:42;;;;;;;3.20;1.40;;;12.30;77.10;;;;;;5068593;28;20024;-74
2023/12/21 01:07:08;;;;;;;5.30;1.80;;;12.30;77.10;;;;;;5059075;28;20044;-74
2023/12/21 01:09:34;;;;;;;4.90;1.40;;;12.30;77.10;;;;;;5059968;28;20086;-75
2023/12/21 01:12:00;;;;;;;6.13;1.67;;;12.30;77.10;;;;;;5060168;28;20025;-79
2023/12/21 01:14:26;;;;;;;5.97;2.08;;;12.30;77.10;;;;;;5057519;28;20033;-74
2023/12/21 01:16:52;;;;;;;5.35;1.88;;;12.30;77.10;;;;;;5053642;28;20365;-75
2023/12/21 01:19:18;;;;;;;5.47;1.50;;;12.20;77.00;;;;;;5057727;28;20072;-75
2023/12/21 01:21:44;;;;;;;7.60;1.90;;;12.30;77.20;;;;;;5054425;28;20017;-74
2023/12/21 01:24:10;;;;;;;6.25;1.83;;;12.20;77.00;;;;;;5053201;28;20045;-74
2023/12/21 01:26:36;;;;;;;8.95;1.80;;;12.20;77.10;;;;;;5058998;28;20028;-74
2023/12/21 01:29:03;;;;;;;5.93;2.72;;;12.20;77.10;;;;;;5053181;28;20219;-76
2023/12/21 01:31:29;;;;;;;6.20;1.60;;;12.20;77.10;;;;;;5057757;28;20195;-75
2023/12/21 01:33:55;;;;;;;6.43;2.00;;;12.30;77.30;;;;;;5065021;28;20129;-74
2023/12/21 01:36:21;;;;;;;5.88;1.77;;;12.20;77.10;;;;;;5059156;28;20074;-74
2023/12/21 01:38:47;;;;;;;5.72;1.98;;;12.20;77.20;;;;;;5060035;28;20038;-75
2023/12/21 01:41:13;;;;;;;5.57;2.17;;;12.30;77.30;;;;;;5057638;28;20378;-73
2023/12/21 01:43:39;;;;;;;6.32;1.80;;;12.30;77.30;;;;;;5055431;28;20112;-74
2023/12/21 01:46:05;;;;;;;4.70;1.50;;;12.30;77.30;;;;;;5055476;28;20495;-74
2023/12/21 01:48:31;;;;;;;5.10;1.50;;;12.30;77.30;;;;;;5057113;28;20056;-79
2023/12/21 01:50:58;;;;;;;5.68;1.52;;;12.30;77.30;;;;;;5050220;28;20124;-75
2023/12/21 01:53:26;;;;;;;6.32;1.60;;;12.30;77.30;;;;;;5059434;28;20060;-75
2023/12/21 01:55:53;;;;;;;5.05;1.77;;;12.30;77.30;;;;;;5056196;28;20157;-76
2023/12/21 01:58:19;;;;;;;5.95;1.63;;;12.30;77.30;;;;;;5052450;28;20021;-75
2023/12/21 02:00:45;;;;;;;6.65;1.58;;;12.30;77.30;;;;;;5052300;28;20111;-74
2023/12/21 02:03:11;;;;;;;7.72;1.80;;;12.30;77.30;;;;;;5054501;28;20031;-79
2023/12/21 02:05:37;;;;;;;8.55;1.90;;;12.30;77.30;;;;;;5047425;28;20037;-74
2023/12/21 02:08:03;;;;;;;11.32;2.53;;;12.30;77.30;;;;;;5056761;28;20068;-77
2023/12/21 02:10:33;;;;;;;6.78;2.25;;;12.30;77.40;;;;;;5051422;28;20028;-74
2023/12/21 02:12:59;;;;;;;8.65;2.88;;;12.30;77.30;;;;;;5059283;28;20036;-75
2023/12/21 02:15:25;;;;;;;7.53;1.70;;;12.30;77.40;;;;;;5054237;28;20120;-74
2023/12/21 02:17:53;;;;;;;12.75;2.55;;;12.30;77.40;;;;;;5054175;28;20098;-75
2023/12/21 02:20:19;;;;;;;9.05;3.38;;;12.40;77.60;;;;;;5056864;28;20111;-78
2023/12/21 02:22:48;;;;;;;6.43;2.13;;;12.40;77.60;;;;;;5054980;28;20028;-74
2023/12/21 02:25:14;;;;;;;8.00;2.08;;;12.30;77.40;;;;;;5057312;28;20033;-76
2023/12/21 02:27:41;;;;;;;9.10;2.20;;;12.30;77.50;;;;;;5053259;28;20120;-78
2023/12/21 02:30:07;;;;;;;8.00;2.08;;;12.30;77.50;;;;;;5052428;28;20460;-75
2023/12/21 02:32:33;;;;;;;9.43;2.22;;;12.30;77.50;;;;;;5059784;28;20365;-74
2023/12/21 02:34:59;;;;;;;7.85;2.25;;;12.30;77.50;;;;;;5059164;28;20481;-74
2023/12/21 02:37:26;;;;;;;9.07;2.92;;;12.30;77.60;;;;;;5060931;28;20089;-75
2023/12/21 02:39:52;;;;;;;10.05;3.53;;;12.30;77.60;;;;;;5059192;28;20036;-75
2023/12/21 02:42:18;;;;;;;8.57;1.80;;;12.40;77.70;;;;;;5060786;28;20016;-80
2023/12/21 02:44:44;;;;;;;6.47;1.65;;;12.30;77.60;;;;;;5052213;28;20055;-75
2023/12/21 02:47:10;;;;;;;7.60;1.85;;;12.30;77.60;;;;;;5058434;23;20060;-91
2023/12/21 02:49:36;;;;;;;6.25;2.22;;;12.40;77.80;;;;;;5045432;28;20052;-89
2023/12/21 02:52:03;;;;;;;7.95;2.03;;;12.30;77.60;;;;;;5042649;28;20028;-89
2023/12/21 02:54:30;;;;;;;4.80;1.85;;;12.40;77.80;;;;;;5062954;28;20093;-88
2023/12/21 02:56:56;;;;;;;9.75;1.90;;;12.40;77.80;;;;;;5047863;28;20130;-87
2023/12/21 02:59:22;;;;;;;7.68;2.53;;;12.40;77.80;;;;;;5059406;28;20063;-87
2023/12/21 03:01:49;;;;;;;9.68;2.00;;;12.40;77.80;;;;;;5046746;28;20039;-88
2023/12/21 03:04:15;;;;;;;7.68;1.60;;;12.40;77.80;;;;;;5045541;28;20029;-88
2023/12/21 03:06:42;;;;;;;7.50;1.77;;;12.40;77.80;;;;;;5061610;28;20051;-88
2023/12/21 03:09:12;;;;;;;6.40;1.90;;;12.40;77.80;;;;;;5054298;28;20071;-87
2023/12/21 03:11:38;;;;;;;5.97;1.85;;;12.40;77.80;;;;;;5042377;28;20052;-87
2023/12/21 03:14:04;;;;;;;7.78;1.58;;;12.40;77.80;;;;;;5057035;28;20480;-86
2023/12/21 03:16:31;;;;;;;5.38;1.67;;;12.50;77.90;;;;;;5058421;28;20040;-88
2023/12/21 03:18:58;;;;;;;7.30;1.77;;;12.50;78.00;;;;;;5047979;28;20308;-89
2023/12/21 03:21:24;;;;;;;5.05;1.45;;;12.50;77.90;;;;;;5062419;28;20111;-89
2023/12/21 03:23:50;;;;;;;5.22;1.73;;;12.50;77.90;;;;;;5047173;28;20028;-88
2023/12/21 03:26:16;;;;;;;8.20;2.75;;;12.50;77.90;;;;;;5058104;28;20108;-88
2023/12/21 03:28:44;;;;;;;5.55;1.80;;;12.50;77.90;;;;;;5060266;28;20123;-87
2023/12/21 03:31:12;;;;;;;7.03;2.22;;;12.40;77.70;;;;;;5048198;28;20275;-88
2023/12/21 03:33:38;;;;;;;6.18;2.08;;;12.50;77.80;;;;;;5058256;28;20043;-88
2023/12/21 03:36:05;;;;;;;7.72;2.40;;;12.50;77.80;;;;;;5042926;28;20025;-87
2023/12/21 03:38:31;;;;;;;6.47;2.45;;;12.50;77.80;;;;;;5055849;28;20035;-87
2023/12/21 03:40:58;;;;;;;8.50;2.17;;;12.50;77.90;;;;;;5063809;28;20452;-87
2023/12/21 03:43:26;;;;;;;8.13;2.17;;;12.50;77.80;;;;;;5059423;28;20126;-88
2023/12/21 03:45:52;;;;;;;6.93;2.05;;;12.50;77.80;;;;;;5056042;28;20420;-89
2023/12/21 03:48:18;;;;;;;9.90;2.35;;;12.50;77.80;;;;;;5057526;28;20044;-89
2023/12/21 03:50:43;;;;;;;7.28;1.73;;;12.40;77.60;;;;;;5042258;28;20039;-87
2023/12/21 03:53:10;;;;;;;7.97;2.72;;;12.40;77.70;;;;;;5057548;28;20581;-87
2023/12/21 03:55:37;;;;;;;6.55;1.80;;;12.40;77.70;;;;;;5034625;28;20593;-85
2023/12/21 03:58:04;;;;;;;8.88;2.42;;;12.50;77.90;;;;;;5051056;28;20031;-86
2023/12/21 04:00:30;;;;;;;6.13;1.83;;;12.40;77.70;;;;;;5050000;28;20369;-86
2023/12/21 04:02:56;;;;;;;4.90;1.73;;;12.40;77.70;;;;;;5063724;28;20134;-85
2023/12/21 04:05:22;;;;;;;8.77;1.90;;;12.40;77.70;;;;;;5059916;28;20206;-86
2023/12/21 04:07:48;;;;;;;6.88;2.08;;;12.40;77.80;;;;;;5059940;28;20040;-86
2023/12/21 04:10:15;;;;;;;10.20;2.00;;;12.40;77.80;;;;;;5051602;28;20544;-86
2023/12/21 04:12:41;;;;;;;6.93;2.17;;;12.40;77.80;;;;;;5055440;28;20037;-87
2023/12/21 04:15:08;;;;;;;6.70;2.05;;;12.40;77.80;;;;;;5055738;28;20071;-86
2023/12/21 04:17:35;;;;;;;9.35;2.83;;;12.40;77.90;;;;;;5058521;28;20301;-87
2023/12/21 04:20:01;;;;;;;7.80;2.08;;;12.40;77.90;;;;;;5060466;28;20033;-88
2023/12/21 04:22:29;;;;;;;9.15;2.42;;;12.40;77.90;;;;;;5047324;28;20033;-89
2023/12/21 04:24:54;;;;;;;7.50;2.03;;;12.40;77.90;;;;;;5056465;28;20040;-88
2023/12/21 04:27:20;;;;;;;7.72;2.63;;;12.40;77.90;;;;;;5063256;28;20070;-89
2023/12/21 04:29:46;;;;;;;7.45;1.60;;;12.40;77.90;;;;;;5058686;28;20031;-89
2023/12/21 04:32:12;;;;;;;10.60;2.78;;;12.40;77.90;;;;;;5049217;28;20028;-88
2023/12/21 04:34:38;;;;;;;13.35;2.60;;;12.40;77.90;;;;;;5058928;28;20032;-86
2023/12/21 04:37:06;;;;;;;5.00;1.80;;;12.40;77.90;;;;;;5055952;28;20051;-88
2023/12/21 04:39:32;;;;;;;5.38;1.50;;;12.40;78.00;;;;;;5048895;28;20361;-87
2023/12/21 04:41:58;;;;;;;7.03;2.17;;;12.40;78.00;;;;;;5057185;28;20167;-87
2023/12/21 04:44:26;;;;;;;7.03;1.92;;;12.40;77.90;;;;;;5038692;28;20035;-87
2023/12/21 04:46:52;;;;;;;10.30;2.25;;;12.40;77.90;;;;;;5052640;28;20069;-87
2023/12/21 04:49:22;;;;;;;7.15;1.75;;;12.40;78.00;;;;;;5043875;28;20414;-88
2023/12/21 04:51:49;;;;;;;6.45;2.03;;;12.40;77.90;;;;;;5037440;28;20380;-87
2023/12/21 04:54:16;;;;;;;7.38;1.90;;;12.50;78.10;;;;;;5041623;28;20051;-86
2023/12/21 04:56:42;;;;;;;8.73;2.15;;;12.50;78.10;;;;;;5045723;28;20032;-87
2023/12/21 04:59:11;;;;;;;9.23;3.10;;;12.50;78.10;;;;;;5043371;28;20021;-88
2023/12/21 05:01:37;;;;;;;9.95;3.35;;;12.50;78.10;;;;;;5033591;28;20298;-89
2023/12/21 05:04:09;;;;;;;9.65;2.53;;;12.50;78.20;;;;;;5030102;28;20174;-87
2023/12/21 05:06:36;;;;;;;8.10;2.95;;;12.50;78.20;;;;;;5065279;28;20037;-88
2023/12/21 05:09:03;;;;;;;8.38;2.15;;;12.50;78.10;;;;;;5035982;28;20052;-87
2023/12/21 05:11:29;;;;;;;8.38;2.10;;;12.50;78.10;;;;;;5040032;28;20479;-87
2023/12/21 05:13:55;;;;;;;8.65;2.90;;;12.50;78.10;;;;;;5047393;28;20088;-87
2023/12/21 05:16:21;;;;;;;9.05;1.83;;;12.50;78.10;;;;;;5030111;28;20357;-86
2023/12/21 05:18:49;;;;;;;8.80;2.47;;;12.50;78.20;;;;;;5042446;28;20052;-87
2023/12/21 05:21:16;;;;;;;7.30;2.17;;;12.50;78.20;;;;;;5051255;28;20113;-87
2023/12/21 05:23:42;;;;;;;8.90;1.98;;;12.50;78.20;;;;;;5063545;28;20069;-86
2023/12/21 05:26:13;;;;;;;7.50;2.03;;;12.50;78.20;;;;;;5069020;28;20035;-87
2023/12/21 05:28:41;;;;;;;9.45;2.75;;;12.50;78.20;;;;;;5069124;28;20197;-88
2023/12/21 05:31:08;;;;;;;5.25;1.48;;;12.50;78.10;;;;;;5065155;28;20070;-87
2023/12/21 05:33:35;;;;;;;8.05;1.52;;;12.50;78.10;;;;;;5067515;28;20068;-87
2023/12/21 05:36:03;;;;;;;6.88;1.60;;;12.50;78.10;;;;;;5058101;28;20035;-84
2023/12/21 05:38:29;;;;;;;4.70;1.75;;;12.50;78.10;;;;;;5058973;28;20063;-85
2023/12/21 05:40:57;;;;;;;5.68;1.83;;;12.60;78.30;;;;;;5047085;28;20021;-84
2023/12/21 05:43:23;;;;;;;10.13;2.75;;;12.60;78.30;;;;;;5055048;28;20078;-85
2023/12/21 05:45:49;;;;;;;6.28;1.92;;;12.60;78.30;;;;;;5058214;28;20025;-84
2023/12/21 05:48:15;;;;;;;5.32;1.80;;;12.60;78.20;;;;;;5043976;28;20369;-84
2023/12/21 05:50:43;;;;;;;10.18;2.20;;;12.60;78.20;;;;;;5031043;28;20025;-83
2023/12/21 05:53:08;;;;;;;7.18;2.80;;;12.60;78.20;;;;;;5034992;28;20033;-82
2023/12/21 05:55:34;;;;;;;6.65;1.52;;;12.60;78.20;;;;;;5052140;28;20028;-83
2023/12/21 05:58:00;;;;;;;8.07;1.60;;;12.60;78.20;;;;;;5039571;28;20362;-83
2023/12/21 06:00:26;;;;;;;5.45;1.27;;;12.70;78.40;;;;;;5046772;28;20017;-83
2023/12/21 06:02:52;;;;;;;5.30;1.92;;;12.60;78.20;;;;;;5043704;28;20392;-84
2023/12/21 06:05:18;;;;;;;4.10;1.70;;;12.60;78.20;;;;;;5028101;28;20038;-84
2023/12/21 06:07:45;;;;;;;5.07;1.65;;;12.60;78.20;;;;;;5035355;28;20033;-84
2023/12/21 06:10:10;;;;;;;7.20;1.90;;;12.60;78.10;;;;;;5051071;28;20029;-85
2023/12/21 06:12:36;;;;;;;5.35;1.65;;;12.60;78.10;;;;;;5032358;28;20365;-82
2023/12/21 06:15:04;;;;;;;4.65;1.58;;;12.60;78.10;;;;;;5024297;28;20045;-84
2023/12/21 06:17:30;;;;;;;7.50;2.47;;;12.60;78.10;;;;;;5040367;28;20148;-83
2023/12/21 06:19:56;;;;;;;7.30;1.92;;;12.60;78.10;;;;;;5039804;28;20333;-83
2023/12/21 06:22:22;;;;;;;5.38;2.17;;;12.60;78.10;;;;;;5040518;28;20084;-83
2023/12/21 06:24:49;;;;;;;7.03;1.83;;;12.60;78.10;;;;;;5052251;28;20136;-82
2023/12/21 06:27:16;;;;;;;7.53;1.83;;;12.60;78.00;;;;;;5031912;28;20040;-83
2023/12/21 06:29:42;;;;;;;5.05;1.88;;;12.60;78.10;;;;;;5045608;28;20420;-83
2023/12/21 06:32:08;;;;;;;4.90;2.00;;;12.60;78.50;;;;;;5057962;28;20553;-84
2023/12/21 06:34:34;;;;;;;7.95;1.95;;;12.60;78.00;;;;;;5053460;28;20032;-87
2023/12/21 06:37:03;;;;;;;10.20;2.10;;;12.60;78.00;;;;;;5054513;28;20682;-93
2023/12/21 06:39:31;;;;;;;7.68;2.50;;;12.60;78.00;;;;;;5040429;28;20068;-86
2023/12/21 06:41:57;;;;;;;10.70;2.78;;;12.60;78.00;;;;;;5022745;28;20457;-86
2023/12/21 06:44:23;;;;;;;9.40;2.42;;;12.60;78.00;;;;;;5036955;28;20024;-83
2023/12/21 06:46:50;;;;;;;4.78;1.63;;;12.60;78.50;;;;;;5037139;28;20067;-86
2023/12/21 06:49:16;;;;;;;6.53;1.73;;;12.60;78.00;;;;;;5033166;28;20055;-86
2023/12/21 06:51:44;;;;;;;7.55;2.28;;;12.60;78.00;;;;;;5037406;28;20056;-84
2023/12/21 06:54:14;;;;;;;5.63;2.53;;;12.60;78.50;;;;;;5034204;28;20123;-84
2023/12/21 06:56:40;;;;;;;6.05;1.75;;;12.60;78.00;;;;;;5040546;28;20189;-84
2023/12/21 06:59:10;;;;;;;7.45;2.92;;;12.60;78.10;;;;;;5062745;28;20467;-82
2023/12/21 07:01:36;;;;;;;6.20;2.28;;;12.60;78.10;;;;;;5040020;28;20033;-82
2023/12/21 07:04:02;;;;;;;11.45;3.35;;;12.60;78.10;;;;;;5041865;28;20083;-84
2023/12/21 07:06:31;;;;;;;6.70;2.22;;;12.60;78.00;;;;;;5038932;28;20045;-82
2023/12/21 07:09:00;;;;;;;13.63;3.65;;;12.60;78.10;;;;;;5045291;28;20106;-84
2023/12/21 07:11:28;;;;;;;12.00;3.03;;;12.60;78.10;;;;;;5042062;28;20111;-88
2023/12/21 07:13:54;;;;;;;10.65;3.28;;;12.70;78.20;;;;;;5059213;28;20032;-86
2023/12/21 07:16:20;;;;;;;12.27;3.63;;;12.60;78.00;;;;;;5049125;28;20033;-87
2023/12/21 07:18:46;;;;;;;14.38;2.95;;;12.60;78.00;;;;;;5011695;28;20365;-87
2023/12/21 07:21:13;;;;;;;9.68;3.17;;;12.60;78.60;;;;;;5019826;28;20077;-86
2023/12/21 07:23:39;;;;;;;12.25;3.95;;;12.60;78.00;;;;;;5039505;28;20112;-85
2023/12/21 07:26:05;;;;;;;9.07;2.78;;;12.60;78.00;;;;;;5023394;28;20041;-86
2023/12/21 07:28:32;;;;;;;8.48;3.88;;;12.60;78.00;;;;;;5047462;28;20594;-87
2023/12/21 07:31:01;;;;;;;14.77;4.63;;;12.70;78.20;;;;;;5019904;28;20024;-86
2023/12/21 07:33:27;;;;;;;8.48;2.67;;;12.70;78.20;;;;;;5031017;28;20035;-86
2023/12/21 07:35:53;;;;;;;11.90;3.15;;;12.70;78.20;;;;;;5033082;28;20240;-86
2023/12/21 07:38:19;;;;;;;10.02;3.33;;;12.70;78.20;;;;;;5038852;28;20040;-89
2023/12/21 07:40:45;;;;;;;8.15;2.47;;;12.70;78.20;;;;;;5035295;28;20048;-82
2023/12/21 07:43:12;;;;;;;10.82;3.13;;;12.70;78.10;;;;;;5059877;28;20033;-85
2023/12/21 07:45:38;;;;;;;8.70;2.58;;;12.70;78.20;;;;;;5042943;28;20021;-85
2023/12/21 07:48:05;;;;;;;13.85;3.40;;;12.70;78.10;;;;;;5033902;28;20482;-84
2023/12/21 07:50:31;;;;;;;11.82;3.10;;;12.70;78.00;;;;;;5048415;28;20623;-83
2023/12/21 07:52:59;;;;;;;10.40;2.65;;;12.70;78.00;;;;;;5035677;28;20051;-86
2023/12/21 07:55:25;;;;;;;10.98;3.72;;;12.70;78.00;;;;;;5027383;28;20124;-87
2023/12/21 07:57:51;;;;;;;7.60;2.25;;;12.60;77.70;;;;;;5035372;28;20064;-86
2023/12/21 08:00:18;;;;;;;7.80;2.92;;;12.70;77.90;;;;;;5040081;28;20040;-87
2023/12/21 08:02:47;;;;;;;6.88;2.50;;;12.70;77.80;;;;;;5035931;28;20049;-87
2023/12/21 08:05:14;;;;;;;8.80;2.45;;;12.70;77.70;;;;;;5041750;28;20044;-86
2023/12/21 08:07:41;;;;;;;10.93;4.32;;;12.70;77.70;;;;;;5035978;28;20477;-88
2023/12/21 08:10:07;;;;;;;10.68;2.30;;;12.70;77.70;;;;;;5038731;28;20074;-86
2023/12/21 08:12:35;;;;;;;7.60;2.35;;;12.70;77.60;;;;;;5042694;28;20024;-87
2023/12/21 08:15:02;;;;;;;12.38;2.95;;;12.70;77.50;;;;;;5058698;28;20102;-86
2023/12/21 08:17:30;;;;;;;8.75;2.60;;;12.70;77.50;;;;;;5039549;28;20037;-87
2023/12/21 08:19:56;;;;;;;10.02;2.75;;;12.70;77.40;;;;;;5022880;28;20038;-86
2023/12/21 08:22:25;;;;;;;11.18;2.88;;;12.70;77.30;;;;;;5041104;28;20402;-86
2023/12/21 08:24:52;;;;;;;12.77;3.20;;;12.70;77.30;;;;;;5041272;28;20348;-86
2023/12/21 08:27:19;;;;;;;11.35;3.30;;;12.70;77.30;;;;;;5035809;28;20040;-88
2023/12/21 08:29:45;;;;;;;10.10;3.30;;;12.70;77.20;;;;;;5044750;28;20036;-86
2023/12/21 08:32:13;;;;;;;11.13;3.17;;;12.70;77.20;;;;;;5028819;28;20192;-86
2023/12/21 08:34:39;;;;;;;7.25;2.85;;;12.70;77.10;;;;;;5023849;28;20029;-87
2023/12/21 08:37:06;;;;;;;9.43;2.65;;;12.70;77.10;;;;;;5035688;28;20284;-87
2023/12/21 08:39:33;;;;;;;9.93;2.80;;;12.70;77.00;;;;;;5045586;28;20029;-87
2023/12/21 08:42:01;;;;;;;9.48;2.95;;;12.70;76.90;;;;;;5055159;28;20112;-85
2023/12/21 08:44:27;;;;;;;7.75;2.20;;;12.80;77.00;;;;;;5034603;28;20059;-85
2023/12/21 08:46:55;;;;;;;5.57;3.25;;;12.80;76.90;;;;;;5038744;28;20531;-85
2023/12/21 08:49:21;;;;;;;9.48;2.40;;;12.80;76.90;;;;;;5052742;28;20043;-85
2023/12/21 08:51:47;;;;;;;5.00;1.95;;;12.80;76.90;;;;;;5020673;28;20029;-86
2023/12/21 08:54:13;;;;;;;8.50;2.70;;;12.80;76.80;;;;;;5052924;28;20567;-85
2023/12/21 08:56:46;;;;;;;6.72;2.20;;;12.80;76.70;;;;;;5041091;28;20135;-84
2023/12/21 08:59:12;;;;;;;7.88;2.58;;;12.80;76.60;;;;;;5014862;28;20059;-86
2023/12/21 09:01:39;;;;;;;5.72;2.65;;;12.90;76.70;;;;;;5039616;28;20124;-85
2023/12/21 09:04:05;;;;;;;10.13;2.25;;;12.90;76.60;;;;;;5040064;28;20416;-86
2023/12/21 09:06:32;;;;;;;9.52;2.30;;;12.90;76.50;;;;;;5046804;28;20084;-87
2023/12/21 09:08:58;;;;;;;7.93;2.58;;;13.00;76.60;;;;;;5034059;28;20489;-85
2023/12/21 09:11:27;;;;;;;7.00;2.45;;;13.00;76.50;;;;;;5029639;28;20081;-83
2023/12/21 09:13:56;;;;;;;7.45;2.15;;;13.00;76.40;;;;;;5031502;28;20159;-83
2023/12/21 09:16:23;;;;;;;7.90;2.70;;;13.10;76.40;;;;;;5034229;28;20065;-84
2023/12/21 09:18:49;;;;;;;6.82;2.70;;;13.10;76.30;;;;;;5033665;28;20029;-85
2023/12/21 09:21:15;;;;;;;6.05;1.85;;;13.10;76.20;;;;;;5029906;28;20186;-85
2023/12/21 09:23:41;;;;;;;5.43;1.85;;;13.20;76.20;;;;;;5031048;28;20037;-84
2023/12/21 09:26:08;;;;;;;8.52;2.08;;;13.20;76.10;;;;;;5032553;28;20032;-84
2023/12/21 09:28:39;;;;;;;5.28;2.28;;;13.20;76.00;;;;;;5036414;28;20041;-82
2023/12/21 09:31:07;;;;;;;4.85;1.90;;;13.30;76.10;;;;;;5030142;28;20377;-82
2023/12/21 09:33:36;;;;;;;6.75;1.83;;;13.30;75.90;;;;;;5043188;28;20037;-85
2023/12/21 09:36:06;;;;;;;6.20;2.38;;;13.30;75.80;;;;;;5032983;28;20026;-84
2023/12/21 09:38:31;;;;;;;7.75;2.90;;;13.40;75.90;;;;;;5039794;28;20365;-84
2023/12/21 09:40:59;;;;;;;5.45;2.00;;;13.40;75.80;;;;;;5043689;28;20052;-84
2023/12/21 09:43:27;;;;;;;7.22;2.40;;;13.40;75.70;;;;;;5037303;28;20325;-85
2023/12/21 09:45:56;;;;;;;8.40;2.40;;;13.50;75.80;;;;;;5042894;28;20022;-84
2023/12/21 09:48:25;;;;;;;8.20;1.77;;;13.50;75.70;;;;;;5041722;28;20033;-85
2023/12/21 09:50:52;;;;;;;6.05;1.98;;;13.50;75.70;;;;;;5057080;28;20494;-85
2023/12/21 09:53:19;;;;;;;7.03;1.65;;;13.50;75.50;;;;;;5038257;28;20040;-85
2023/12/21 09:55:46;;;;;;;7.80;2.00;;;13.60;75.60;;;;;;5031314;28;20582;-85
2023/12/21 09:58:12;;;;;;;6.85;2.25;;;13.60;75.50;;;;;;5039202;28;20491;-85
2023/12/21 10:00:39;;;;;;;6.50;2.08;;;13.60;75.40;;;;;;5038115;28;20029;-84
2023/12/21 10:03:06;;;;;;;7.25;1.95;;;13.60;75.30;;;;;;5038222;28;20033;-86
2023/12/21 10:05:33;;;;;;;5.20;1.98;;;13.70;75.30;;;;;;5037664;28;20036;-86
2023/12/21 10:07:59;;;;;;;6.95;2.17;;;13.70;75.30;;;;;;5058710;28;20143;-84
2023/12/21 10:10:26;;;;;;;7.22;3.03;;;13.80;75.30;;;;;;5042203;28;20167;-85
2023/12/21 10:12:53;;;;;;;5.35;2.55;;;13.80;75.20;;;;;;5035696;28;20492;-85
2023/12/21 10:15:20;;;;;;;5.53;2.10;;;13.80;75.00;;;;;;5050498;28;20021;-84
2023/12/21 10:17:47;;;;;;;7.80;3.22;;;13.90;75.00;;;;;;5043082;28;20116;-84
2023/12/21 10:20:14;;;;;;;7.38;2.88;;;14.00;75.10;;;;;;5039403;28;20144;-85
2023/12/21 10:22:42;;;;;;;7.45;2.55;;;14.00;74.90;;;;;;5035363;28;20036;-84
2023/12/21 10:25:12;;;;;;;8.60;2.85;;;14.10;75.00;;;;;;5030000;28;20044;-84
2023/12/21 10:27:40;;;;;;;5.55;2.22;;;14.10;75.00;;;;;;5025949;28;20083;-83
2023/12/21 10:30:06;;;;;;;7.90;2.85;;;14.10;74.70;;;;;;5032677;28;20041;-83
2023/12/21 10:32:33;;;;;;;6.93;2.38;;;14.30;74.90;;;;;;5034898;28;20484;-84
2023/12/21 10:34:59;;;;;;;6.85;2.30;;;14.30;74.70;;;;;;5037076;28;20382;-83
2023/12/21 10:37:26;;;;;;;8.55;3.00;;;14.40;74.80;;;;;;5035249;28;20477;-87
2023/12/21 10:39:56;;;;;;;7.05;2.15;;;14.50;74.80;;;;;;5031093;28;20025;-83
2023/12/21 10:42:23;;;;;;;9.90;2.35;;;14.50;74.60;;;;;;5024625;28;20103;-84
2023/12/21 10:44:50;;;;;;;7.68;2.60;;;14.50;74.50;;;;;;5036922;28;20056;-84
2023/12/21 10:47:17;;;;;;;9.38;2.47;;;14.60;74.60;;;;;;5037220;28;20499;-82
2023/12/21 10:49:44;;;;;;;4.43;2.40;;;14.50;74.30;;;;;;5041720;28;20048;-84
2023/12/21 10:52:11;;;;;;;9.07;2.63;;;14.60;74.40;;;;;;5014617;28;20863;-84
2023/12/21 10:54:42;;;;;;;6.25;1.85;;;14.50;74.20;;;;;;5046987;28;20140;-84
2023/12/21 10:57:09;;;;;;;10.07;2.42;;;14.60;74.40;;;;;;5052068;28;20045;-83
2023/12/21 10:59:38;;;;;;;6.90;2.30;;;14.60;74.30;;;;;;5044239;28;20032;-84
2023/12/21 11:02:10;;;;;;;7.88;2.50;;;14.60;74.30;;;;;;5021283;28;20056;-84
2023/12/21 11:04:38;;;;;;;6.67;2.00;;;14.60;74.20;;;;;;5030348;28;20436;-85
2023/12/21 11:07:08;;;;;;;7.45;2.15;;;14.60;74.20;;;;;;5035104;28;20744;-83
2023/12/21 11:09:35;;;;;;;7.88;2.10;;;14.70;74.30;;;;;;5035797;28;20397;-84
2023/12/21 11:12:02;;;;;;;7.43;2.88;;;14.70;74.20;;;;;;5044035;28;20370;-84
2023/12/21 11:14:29;;;;;;;9.43;3.08;;;14.70;74.10;;;;;;5035256;28;20435;-84
2023/12/21 11:16:58;;;;;;;9.15;2.13;;;14.80;74.20;;;;;;5031054;28;20063;-83
2023/12/21 11:19:33;;;;;;;7.22;2.97;;;14.80;74.10;;;;;;5058161;28;20025;-84
2023/12/21 11:22:01;;;;;;;6.05;2.00;;;14.90;74.10;;;;;;5071578;28;20036;-85
2023/12/21 11:24:27;;;;;;;7.93;2.65;;;14.90;74.00;;;;;;5057781;28;20092;-85
2023/12/21 11:26:53;;;;;;;10.60;2.58;;;15.00;74.00;;;;;;5063682;28;20473;-85
2023/12/21 11:29:27;;;;;;;8.23;2.85;;;15.00;73.90;;;;;;5046273;28;20085;-85
2023/12/21 11:31:54;;;;;;;6.55;1.88;;;15.00;73.80;;;;;;5051810;28;20036;-85
2023/12/21 11:34:34;;;;;;;8.88;3.13;;;15.00;73.70;;;;;;5056534;28;20089;-85
2023/12/21 11:37:16;;;;;;;8.50;2.88;;;15.10;73.80;;;;;;5049085;28;20105;-86
2023/12/21 11:39:52;;;;;;;10.20;2.75;;;15.10;73.70;;;;;;5032101;28;20171;-84
2023/12/21 11:42:35;;;;;;;8.55;3.33;;;15.10;73.60;;;;;;5035527;28;20413;-84
2023/12/21 11:45:07;;;;;;;10.68;3.38;;;15.10;73.50;;;;;;5033245;28;20070;-85
2023/12/21 11:47:34;;;;;;;10.07;3.28;;;15.10;73.50;;;;;;5035640;28;20049;-85
2023/12/21 11:50:09;;;;;;;7.47;2.40;;;15.20;73.60;;;;;;5030697;28;20397;-85
2023/12/21 11:52:36;;;;;;;8.63;2.83;;;15.20;73.50;;;;;;5031338;28;20044;-86
2023/12/21 11:55:02;;;;;;;12.40;2.33;;;15.20;73.40;;;;;;5035285;28;20032;-85
2023/12/21 11:57:30;;;;;;;11.35;3.55;;;15.20;73.40;;;;;;5034196;28;20026;-82
2023/12/21 12:00:09;;;;;;;9.15;3.10;;;15.30;73.50;;;;;;5032307;28;20489;-83
2023/12/21 12:02:35;;;;;;;9.82;3.15;;;15.30;73.30;;;;;;5033586;28;20025;-84
2023/12/21 12:05:05;;;;;;;8.65;2.67;;;15.30;73.30;;;;;;5037761;28;20147;-84
2023/12/21 12:07:34;;;;;;;6.72;2.08;;;15.40;73.40;;;;;;5015851;28;20041;-84
2023/12/21 12:10:00;;;;;;;8.65;2.55;;;15.40;73.30;;;;;;5028833;28;20039;-82
2023/12/21 12:12:29;;;;;;;6.15;2.25;;;15.40;73.20;;;;;;5057797;28;20053;-83
2023/12/21 12:14:55;;;;;;;8.57;3.17;;;15.40;73.20;;;;;;5031653;28;20509;-81
2023/12/21 12:17:21;;;;;;;9.05;2.83;;;15.40;73.10;;;;;;5032682;28;20492;-84
2023/12/21 12:19:47;;;;;;;10.57;2.30;;;15.40;73.10;;;;;;5048035;28;20540;-84
2023/12/21 12:22:14;;;;;;;9.48;2.53;;;15.40;73.00;;;;;;5045375;28;20535;-84
2023/12/21 12:24:42;;;;;;;8.13;2.35;;;15.50;73.20;;;;;;5035653;28;20389;-83
2023/12/21 12:27:10;;;;;;;12.95;2.78;;;15.50;73.10;;;;;;5051843;28;20144;-84
2023/12/21 12:29:36;;;;;;;5.68;1.98;;;15.50;73.00;;;;;;5028659;28;20496;-84
2023/12/21 12:32:02;;;;;;;6.22;2.10;;;15.60;73.00;;;;;;5031089;28;20030;-83
2023/12/21 12:34:30;;;;;;;7.10;2.13;;;15.60;72.90;;;;;;5032572;28;20044;-85
2023/12/21 12:36:56;;;;;;;7.63;2.95;;;15.70;72.90;;;;;;5035706;28;20636;-83
2023/12/21 12:39:22;;;;;;;8.93;2.67;;;15.70;72.70;;;;;;5023409;28;20116;-85
2023/12/21 12:41:57;;;;;;;7.28;2.20;;;15.70;72.60;;;;;;5038138;28;20119;-84
2023/12/21 12:44:23;;;;;;;6.15;2.10;;;15.70;72.40;;;;;;5037137;28;20035;-86